Terminal Aerodrome Forecast
Issued by NWS

Home | Current Version | Previous Version | Text Only | Print | Product List | Glossary On
Versions: 1 2 3 4 5 6 7 8 9 10 11 12 13 14 15 16
031
FTUS42 TJSJ 292339
TAFIST
TAF
TIST 292339Z 3000/3024 11007KT P6SM VCSH FEW025 SCT100
      TEMPO 3008/3012 VRB12G20KT 5SM SHRA SCT025 BKN040
     FM301330 13010KT P6SM VCSH SCT025 SCT040 BKN050
     FM302300 09008KT P6SM FEW025=

USA.gov is the U.S. government's official web portal to all federal, state and local government web resources and services.